NWS436 UNKL-UNNT
Flight info
| Callsign | NWS436 |
|---|---|
| Flight time | N/A |
| Altitude | 36000 |
| Route | APRUS2F APRUS B926 NATIR NATIR1P |
| Aircraft | B738/M-SDE2E3FGHIRWXY/LB1 |
Departure
| Time | 2026-05-01 15:14 |
|---|---|
| Airport | Krasnoyarsk International Airport (UNKL) |
Arrival
| Time | N/A |
|---|---|
| Airport | Novosibirsk Tolmachevo Airport (UNNT) |
| Time | Latitude | Longitude | Altitude | Speed | Heading |
|---|---|---|---|---|---|
| 2026-05-01 14:41 | 56.18194 | 92.47003 | 950 ft | 0 kts | 22° |
| 2026-05-01 15:02 | 56.18220 | 92.47025 | 950 ft | 6 kts | 31° |
| 2026-05-01 15:02 | 56.18227 | 92.47113 | 950 ft | 12 kts | 117° |
| 2026-05-01 15:03 | 56.18177 | 92.47320 | 949 ft | 23 kts | 113° |
| 2026-05-01 15:03 | 56.18100 | 92.47635 | 949 ft | 26 kts | 113° |
| 2026-05-01 15:03 | 56.18035 | 92.47916 | 950 ft | 20 kts | 110° |
| 2026-05-01 15:03 | 56.17964 | 92.47991 | 950 ft | 10 kts | 220° |
| 2026-05-01 15:04 | 56.17910 | 92.47929 | 949 ft | 9 kts | 205° |
| 2026-05-01 15:04 | 56.17854 | 92.47934 | 949 ft | 9 kts | 140° |
| 2026-05-01 15:04 | 56.17822 | 92.48043 | 950 ft | 12 kts | 114° |
| 2026-05-01 15:04 | 56.17782 | 92.48214 | 950 ft | 18 kts | 111° |
| 2026-05-01 15:05 | 56.17730 | 92.48446 | 949 ft | 23 kts | 114° |
| 2026-05-01 15:05 | 56.17660 | 92.48728 | 950 ft | 27 kts | 113° |
| 2026-05-01 15:05 | 56.17587 | 92.49040 | 950 ft | 22 kts | 117° |
| 2026-05-01 15:05 | 56.17525 | 92.49292 | 949 ft | 22 kts | 114° |
| 2026-05-01 15:06 | 56.17467 | 92.49534 | 949 ft | 21 kts | 113° |
| 2026-05-01 15:06 | 56.17414 | 92.49753 | 949 ft | 18 kts | 113° |
| 2026-05-01 15:06 | 56.17365 | 92.49955 | 950 ft | 17 kts | 114° |
| 2026-05-01 15:06 | 56.17320 | 92.50150 | 950 ft | 17 kts | 112° |
| 2026-05-01 15:07 | 56.17272 | 92.50347 | 950 ft | 20 kts | 113° |
| 2026-05-01 15:07 | 56.17212 | 92.50600 | 949 ft | 23 kts | 113° |
| 2026-05-01 15:07 | 56.17149 | 92.50861 | 949 ft | 22 kts | 113° |
| 2026-05-01 15:07 | 56.17087 | 92.51115 | 950 ft | 22 kts | 113° |
| 2026-05-01 15:08 | 56.17021 | 92.51396 | 949 ft | 26 kts | 113° |
| 2026-05-01 15:08 | 56.16952 | 92.51685 | 949 ft | 24 kts | 114° |
| 2026-05-01 15:08 | 56.16900 | 92.51902 | 950 ft | 14 kts | 113° |
| 2026-05-01 15:08 | 56.16885 | 92.51935 | 950 ft | 0 kts | 149° |
| 2026-05-01 15:09 | 56.16874 | 92.51944 | 949 ft | 7 kts | 155° |
| 2026-05-01 15:09 | 56.16800 | 92.51997 | 949 ft | 1 kts | 161° |
| 2026-05-01 15:10 | 56.16795 | 92.52001 | 950 ft | 0 kts | 159° |
| 2026-05-01 15:11 | 56.16794 | 92.52001 | 950 ft | 1 kts | 159° |
| 2026-05-01 15:11 | 56.16756 | 92.52028 | 950 ft | 11 kts | 159° |
| 2026-05-01 15:12 | 56.16664 | 92.51996 | 951 ft | 18 kts | 251° |
| 2026-05-01 15:12 | 56.16675 | 92.51913 | 952 ft | 0 kts | 293° |
| 2026-05-01 15:14 | 56.16726 | 92.51697 | 950 ft | 54 kts | 293° |
| 2026-05-01 15:14 | 56.16883 | 92.51041 | 950 ft | 117 kts | 293° |
| 2026-05-01 15:14 | 56.17836 | 92.46998 | 2021 ft | 206 kts | 291° |
| 2026-05-01 15:15 | 56.19015 | 92.41969 | 3693 ft | 231 kts | 293° |
| 2026-05-01 15:15 | 56.20331 | 92.36474 | 4969 ft | 244 kts | 293° |
| 2026-05-01 15:16 | 56.21599 | 92.30815 | 6392 ft | 246 kts | 279° |
| 2026-05-01 15:16 | 56.20931 | 92.24838 | 7730 ft | 249 kts | 250° |
| 2026-05-01 15:17 | 56.19656 | 92.19111 | 9191 ft | 245 kts | 250° |
| 2026-05-01 15:18 | 56.17722 | 92.10438 | 11399 ft | 256 kts | 251° |
| 2026-05-01 15:18 | 56.17061 | 92.07440 | 12162 ft | 260 kts | 251° |
| 2026-05-01 15:19 | 56.15029 | 91.98180 | 14477 ft | 271 kts | 252° |
| 2026-05-01 15:19 | 56.13560 | 91.91440 | 15079 ft | 314 kts | 252° |
| 2026-05-01 15:19 | 56.12734 | 91.87657 | 15251 ft | 338 kts | 252° |
| 2026-05-01 15:20 | 56.10903 | 91.79316 | 15552 ft | 380 kts | 251° |
| 2026-05-01 15:20 | 56.09909 | 91.74819 | 15822 ft | 395 kts | 251° |
| 2026-05-01 15:20 | 56.08887 | 91.70212 | 16385 ft | 400 kts | 251° |
| 2026-05-01 15:21 | 56.07869 | 91.65633 | 17042 ft | 402 kts | 251° |
| 2026-05-01 15:21 | 56.06819 | 91.60916 | 17697 ft | 404 kts | 251° |
| 2026-05-01 15:21 | 56.05773 | 91.56217 | 18311 ft | 408 kts | 252° |
| 2026-05-01 15:21 | 56.04714 | 91.51470 | 18825 ft | 412 kts | 252° |
| 2026-05-01 15:22 | 56.02569 | 91.41875 | 19891 ft | 418 kts | 251° |
| 2026-05-01 15:22 | 56.01488 | 91.37060 | 20387 ft | 421 kts | 252° |
| 2026-05-01 15:22 | 56.00395 | 91.32192 | 20892 ft | 424 kts | 251° |
| 2026-05-01 15:23 | 55.99293 | 91.27303 | 21375 ft | 427 kts | 251° |
| 2026-05-01 15:23 | 55.98214 | 91.22343 | 21830 ft | 428 kts | 255° |
| 2026-05-01 15:23 | 55.97477 | 91.17266 | 22279 ft | 429 kts | 261° |
| 2026-05-01 15:23 | 55.96875 | 91.12035 | 22732 ft | 431 kts | 262° |
| 2026-05-01 15:24 | 55.96309 | 91.06767 | 23165 ft | 433 kts | 262° |
| 2026-05-01 15:24 | 55.95739 | 91.01462 | 23597 ft | 436 kts | 262° |
| 2026-05-01 15:24 | 55.95150 | 90.96131 | 23953 ft | 439 kts | 262° |
| 2026-05-01 15:24 | 55.94541 | 90.90789 | 24330 ft | 441 kts | 262° |
| 2026-05-01 15:25 | 55.93914 | 90.85430 | 24709 ft | 442 kts | 262° |
| 2026-05-01 15:25 | 55.93274 | 90.80047 | 25064 ft | 444 kts | 262° |
| 2026-05-01 15:25 | 55.92624 | 90.74639 | 25409 ft | 446 kts | 262° |
| 2026-05-01 15:25 | 55.91970 | 90.69240 | 25751 ft | 448 kts | 261° |
| 2026-05-01 15:26 | 55.91307 | 90.63787 | 26083 ft | 450 kts | 261° |
| 2026-05-01 15:26 | 55.90639 | 90.58318 | 26407 ft | 452 kts | 261° |
| 2026-05-01 15:26 | 55.89968 | 90.52838 | 26715 ft | 454 kts | 261° |
| 2026-05-01 15:26 | 55.89292 | 90.47335 | 27012 ft | 455 kts | 261° |
| 2026-05-01 15:27 | 55.88614 | 90.41845 | 27330 ft | 455 kts | 261° |
| 2026-05-01 15:27 | 55.87932 | 90.36341 | 27723 ft | 454 kts | 261° |
| 2026-05-01 15:27 | 55.87251 | 90.30869 | 28158 ft | 451 kts | 261° |
| 2026-05-01 15:28 | 55.85891 | 90.19996 | 28974 ft | 449 kts | 261° |
| 2026-05-01 15:28 | 55.85209 | 90.14577 | 29388 ft | 448 kts | 261° |
| 2026-05-01 15:28 | 55.84526 | 90.09162 | 29815 ft | 447 kts | 261° |
| 2026-05-01 15:29 | 55.83160 | 89.98406 | 30576 ft | 444 kts | 261° |
| 2026-05-01 15:29 | 55.82487 | 89.93129 | 30932 ft | 443 kts | 261° |
| 2026-05-01 15:29 | 55.81121 | 89.82488 | 31639 ft | 440 kts | 261° |
| 2026-05-01 15:30 | 55.79754 | 89.71915 | 32353 ft | 437 kts | 262° |
| 2026-05-01 15:31 | 55.77018 | 89.50988 | 33740 ft | 432 kts | 262° |
| 2026-05-01 15:31 | 55.75649 | 89.40627 | 34358 ft | 430 kts | 262° |
| 2026-05-01 15:32 | 55.74276 | 89.30305 | 34862 ft | 430 kts | 261° |
| 2026-05-01 15:32 | 55.72893 | 89.19979 | 35388 ft | 429 kts | 261° |
| 2026-05-01 15:33 | 55.71670 | 89.10906 | 35918 ft | 427 kts | 261° |
| 2026-05-01 15:34 | 55.69572 | 88.95448 | 36074 ft | 430 kts | 261° |